Time;durP1;ratioP1;P1;durP2;ratioP2;P2;SDS_P1;SDS_P2;PMS_P1;PMS_P2;Temp;Humidity;BMP_temperature;BMP_pressure;BME280_temperature;BME280_humidity;BME280_pressure;Samples;Min_cycle;Max_cycle;Signal;HPM_P1;HPM_P2
2023/04/05 00:01:36;;;;;;;14.80;10.52;;;3.00;99.90;;;1.55;100.00;97861.94;5022950;28;20407;-76
2023/04/05 00:04:03;;;;;;;15.82;11.05;;;2.90;99.90;;;1.56;100.00;97860.94;5021601;28;20400;-75
2023/04/05 00:06:31;;;;;;;16.38;11.73;;;2.90;99.90;;;1.55;100.00;97859.34;5021736;28;20398;-74
2023/04/05 00:08:57;;;;;;;16.50;9.82;;;2.90;99.90;;;1.62;100.00;97862.81;5023020;28;20399;-74
2023/04/05 00:11:24;;;;;;;19.60;10.90;;;2.90;99.90;;;1.58;100.00;97856.34;5021255;28;20393;-74
2023/04/05 00:13:50;;;;;;;15.60;10.75;;;2.90;99.90;;;1.53;100.00;97853.47;5021314;28;20480;-75
2023/04/05 00:16:17;;;;;;;15.77;10.87;;;2.90;99.90;;;1.60;100.00;97859.59;5022916;28;20825;-75
2023/04/05 00:18:50;;;;;;;16.30;10.95;;;2.90;99.90;;;1.60;100.00;97856.16;5021388;28;20413;-74
2023/04/05 00:21:16;;;;;;;14.85;9.80;;;2.90;99.90;;;1.53;100.00;97845.66;5020417;28;20412;-74
2023/04/05 00:23:46;;;;;;;17.15;10.75;;;2.90;99.90;;;1.55;100.00;97844.50;5022477;28;20403;-74
2023/04/05 00:26:12;;;;;;;13.95;9.55;;;2.80;99.90;;;1.51;100.00;97845.00;5022570;28;20747;-74
2023/04/05 00:28:37;;;;;;;16.75;11.60;;;2.80;99.90;;;1.48;100.00;97835.78;5020684;28;20411;-74
2023/04/05 00:31:04;;;;;;;15.30;10.40;;;2.80;99.90;;;1.61;100.00;97840.34;5021801;28;20984;-74
2023/04/05 00:33:30;;;;;;;17.23;10.57;;;2.90;99.90;;;1.59;100.00;97837.09;5028932;28;20536;-74
2023/04/05 00:35:56;;;;;;;14.43;10.43;;;2.90;99.90;;;1.48;100.00;97833.16;5020516;28;20405;-75
2023/04/05 00:38:22;;;;;;;18.53;11.60;;;2.80;99.90;;;1.58;100.00;97832.06;5029437;28;20425;-75
2023/04/05 00:40:49;;;;;;;16.67;10.30;;;2.80;99.90;;;1.50;100.00;97828.56;5021502;28;20403;-75
2023/04/05 00:43:15;;;;;;;20.05;11.68;;;2.80;99.90;;;1.50;100.00;97822.56;5020287;28;20412;-74
2023/04/05 00:45:41;;;;;;;17.27;11.10;;;2.80;99.90;;;1.50;100.00;97825.94;5022243;28;20765;-75
2023/04/05 00:48:07;;;;;;;17.00;10.40;;;2.80;99.90;;;1.54;100.00;97832.44;5021362;28;20774;-75
2023/04/05 00:50:33;;;;;;;17.02;10.50;;;2.80;99.90;;;1.41;100.00;97821.84;5020330;28;20417;-75
2023/04/05 00:53:00;;;;;;;14.52;9.95;;;2.80;99.90;;;1.36;100.00;97813.75;5022047;28;20894;-75
2023/04/05 00:55:26;;;;;;;15.68;10.25;;;2.70;99.90;;;1.47;100.00;97818.50;5021373;28;20407;-74
2023/04/05 00:57:57;;;;;;;17.35;10.57;;;2.70;99.90;;;1.33;100.00;97811.50;5021780;28;20393;-74
2023/04/05 01:00:25;;;;;;;15.63;10.20;;;2.70;99.90;;;1.36;100.00;97808.53;5020502;28;20480;-74
2023/04/05 01:03:00;;;;;;;15.57;10.63;;;2.70;99.90;;;1.28;100.00;97805.22;5020287;28;20476;-74
2023/04/05 01:05:38;;;;;;;16.10;10.48;;;2.60;99.90;;;1.32;100.00;97807.28;5020891;28;20397;-75
2023/04/05 01:08:14;;;;;;;17.20;11.40;;;2.60;99.90;;;1.25;100.00;97805.59;5020569;28;20886;-75
2023/04/05 01:10:50;;;;;;;18.52;12.63;;;2.60;99.90;;;1.23;100.00;97795.31;5019899;28;20405;-74
2023/04/05 01:13:17;;;;;;;18.00;10.23;;;2.60;99.90;;;1.27;100.00;97799.22;5019564;28;20435;-75
2023/04/05 01:15:43;;;;;;;17.25;9.75;;;2.60;99.90;;;1.26;100.00;97800.19;5021568;28;20494;-75
2023/04/05 01:18:10;;;;;;;15.13;10.30;;;2.60;99.90;;;1.15;100.00;97795.44;5021079;28;20966;-75
2023/04/05 01:20:41;;;;;;;14.10;10.20;;;2.50;99.90;;;1.15;100.00;97793.63;5019572;28;20917;-74
2023/04/05 01:23:24;;;;;;;14.23;10.57;;;2.50;99.90;;;1.09;100.00;97794.34;5020651;28;20410;-74
2023/04/05 01:26:31;;;;;;;17.85;11.00;;;2.50;99.90;;;1.13;100.00;97792.19;5021159;28;20409;-75
2023/04/05 01:29:49;;;;;;;13.98;10.35;;;2.50;99.90;;;1.04;100.00;97783.69;5021551;28;20415;-75
2023/04/05 01:32:30;;;;;;;18.60;11.93;;;2.40;99.90;;;1.04;100.00;97778.47;5018847;28;20399;-74
2023/04/05 01:35:06;;;;;;;15.83;10.87;;;2.40;99.90;;;1.00;100.00;97771.97;5021383;28;20578;-74
2023/04/05 01:37:34;;;;;;;17.30;11.50;;;2.40;99.90;;;1.11;100.00;97778.53;5028065;28;20436;-75
2023/04/05 01:40:01;;;;;;;13.40;9.43;;;2.40;99.90;;;1.06;100.00;97775.66;5019329;28;20405;-75
2023/04/05 01:42:27;;;;;;;15.40;10.82;;;2.40;99.90;;;0.94;100.00;97770.09;5027186;28;20416;-75
2023/04/05 01:44:56;;;;;;;15.80;11.47;;;2.30;99.90;;;1.00;100.00;97777.19;5026621;28;20992;-75
2023/04/05 01:47:22;;;;;;;17.13;10.13;;;2.30;99.90;;;0.92;100.00;97779.06;5019204;28;20836;-74
2023/04/05 01:49:48;;;;;;;15.68;10.80;;;2.30;99.90;;;0.85;100.00;97768.56;5020200;28;20469;-74
2023/04/05 01:52:14;;;;;;;16.80;11.30;;;2.20;99.90;;;0.83;100.00;97773.16;5020966;28;20442;-75
2023/04/05 01:54:39;;;;;;;17.40;10.50;;;2.20;99.90;;;0.95;100.00;97776.13;5019269;28;20417;-74
2023/04/05 01:57:05;;;;;;;16.83;10.63;;;2.30;99.90;;;0.83;100.00;97769.75;5020629;28;20403;-75
2023/04/05 01:59:31;;;;;;;16.00;11.27;;;2.20;99.90;;;0.89;100.00;97769.03;5018523;28;20403;-74
2023/04/05 02:01:59;;;;;;;16.30;9.43;;;2.20;99.90;;;0.90;100.00;97771.47;5021239;28;20399;-74
2023/04/05 02:04:25;;;;;;;14.97;10.20;;;2.20;99.90;;;0.88;100.00;97765.63;5019040;28;20412;-75
2023/04/05 02:06:50;;;;;;;13.70;10.13;;;2.10;99.90;;;0.72;100.00;97764.00;5019833;28;20410;-75
2023/04/05 02:09:17;;;;;;;17.48;11.90;;;2.10;99.90;;;0.63;100.00;97757.25;5021219;28;20948;-75
2023/04/05 02:11:42;;;;;;;17.90;12.15;;;2.00;99.90;;;0.58;100.00;97751.78;5020661;28;20427;-74
2023/04/05 02:14:09;;;;;;;15.88;11.85;;;2.00;99.90;;;0.60;100.00;97755.00;5020042;28;20823;-74
2023/04/05 02:16:35;;;;;;;14.98;11.32;;;2.00;99.90;;;0.59;100.00;97760.41;5019143;28;20831;-75
2023/04/05 02:19:02;;;;;;;21.00;12.35;;;2.00;99.90;;;0.64;100.00;97755.44;5021176;28;20498;-75
2023/04/05 02:21:30;;;;;;;18.52;11.18;;;2.00;99.90;;;0.61;100.00;97754.00;5019919;28;20396;-74
2023/04/05 02:23:56;;;;;;;17.88;11.27;;;2.00;99.90;;;0.53;100.00;97750.66;5021646;28;20414;-75
2023/04/05 02:26:22;;;;;;;16.65;11.52;;;2.00;99.90;;;0.55;100.00;97748.69;5019298;28;20759;-74
2023/04/05 02:28:48;;;;;;;17.85;12.30;;;2.00;99.90;;;0.49;100.00;97746.81;5020002;28;20395;-74
2023/04/05 02:31:15;;;;;;;17.50;11.55;;;1.90;99.90;;;0.56;100.00;97748.53;5020504;28;20847;-74
2023/04/05 02:33:41;;;;;;;15.37;11.37;;;1.90;99.90;;;0.46;100.00;97747.97;5018899;28;21628;-74
2023/04/05 02:36:12;;;;;;;16.57;11.80;;;1.90;99.90;;;0.36;100.00;97739.63;5019097;28;20407;-74
2023/04/05 02:38:37;;;;;;;17.45;12.05;;;1.80;99.90;;;0.34;100.00;97739.81;5018972;28;20434;-74
2023/04/05 02:41:07;;;;;;;22.15;14.38;;;1.80;99.90;;;0.33;100.00;97737.38;5020294;28;20848;-74
2023/04/05 02:43:34;;;;;;;17.92;13.30;;;1.70;99.90;;;0.34;100.00;97744.19;5020492;28;20437;-74
2023/04/05 02:46:00;;;;;;;19.48;12.15;;;1.80;99.90;;;0.36;100.00;97752.66;5025690;28;20416;-74
2023/04/05 02:48:25;;;;;;;18.23;12.05;;;1.80;99.90;;;0.32;100.00;97749.56;5027415;28;20815;-74
2023/04/05 02:50:51;;;;;;;18.42;12.80;;;1.70;99.90;;;0.26;100.00;97746.88;5010526;28;20445;-74
2023/04/05 02:53:19;;;;;;;19.75;13.13;;;1.70;99.90;;;0.30;100.00;97740.34;5018325;28;20437;-74
2023/04/05 02:55:52;;;;;;;16.00;11.97;;;1.70;99.90;;;0.25;100.00;97743.47;5019221;28;20926;-74
2023/04/05 02:58:18;;;;;;;18.27;13.73;;;1.60;99.90;;;0.25;100.00;97743.47;5025408;28;20914;-74
2023/04/05 03:00:45;;;;;;;19.60;14.23;;;1.60;99.90;;;0.26;100.00;97746.88;5027238;28;20403;-74
2023/04/05 03:03:11;;;;;;;17.30;11.75;;;1.70;99.90;;;0.34;100.00;97749.41;4994183;28;20447;-74
2023/04/05 03:05:37;;;;;;;15.73;12.40;;;1.70;99.90;;;0.20;100.00;97748.41;5018566;28;20401;-74
2023/04/05 03:08:04;;;;;;;21.67;13.07;;;1.60;99.90;;;0.21;100.00;97744.00;5027290;28;20502;-74
2023/04/05 03:10:34;;;;;;;18.85;13.43;;;1.60;99.90;;;0.13;100.00;97742.28;5019733;28;20890;-74
2023/04/05 03:13:01;;;;;;;16.55;12.45;;;1.60;99.90;;;0.06;100.00;97736.16;5025289;28;20405;-74
2023/04/05 03:15:27;;;;;;;18.40;13.27;;;1.50;99.90;;;0.02;100.00;97734.88;5020919;28;20877;-74
2023/04/05 03:17:52;;;;;;;18.65;13.38;;;1.40;99.90;;;0.00;100.00;97732.44;5023811;28;20511;-74
2023/04/05 03:20:18;;;;;;;19.88;13.18;;;1.40;99.90;;;0.04;100.00;97732.13;5021789;28;20483;-74
2023/04/05 03:22:45;;;;;;;17.92;13.23;;;1.40;99.90;;;-0.04;100.00;97730.38;5029461;28;20435;-74
2023/04/05 03:25:11;;;;;;;16.90;13.00;;;1.40;99.90;;;-0.12;100.00;97727.84;5025017;28;20403;-74
2023/04/05 03:27:38;;;;;;;19.52;13.27;;;1.30;99.90;;;-0.13;100.00;97734.03;5033619;28;20894;-73
2023/04/05 03:30:06;;;;;;;17.98;12.88;;;1.30;99.90;;;-0.16;100.00;97737.81;5031706;28;20486;-73
2023/04/05 03:32:32;;;;;;;16.85;12.35;;;1.30;99.90;;;-0.19;100.00;97730.34;5026534;28;20555;-73
2023/04/05 03:34:58;;;;;;;18.27;13.52;;;1.30;99.90;;;-0.23;100.00;97736.09;5012952;28;20499;-73
2023/04/05 03:37:24;;;;;;;21.38;15.15;;;1.20;99.90;;;-0.25;100.00;97728.44;5013324;28;20405;-74
2023/04/05 03:39:50;;;;;;;17.63;13.73;;;1.20;99.90;;;-0.22;100.00;97735.88;5011802;28;20413;-73
2023/04/05 03:42:16;;;;;;;18.88;14.27;;;1.20;99.90;;;-0.25;100.00;97731.06;5013044;28;20463;-73
2023/04/05 03:44:44;;;;;;;15.68;12.35;;;1.20;99.90;;;-0.31;100.00;97736.13;5013212;28;20440;-73
2023/04/05 03:47:10;;;;;;;19.20;13.95;;;1.10;99.90;;;-0.37;100.00;97732.41;5013297;28;20957;-73
2023/04/05 03:49:36;;;;;;;16.90;12.93;;;1.10;99.90;;;-0.40;100.00;97735.38;5012931;28;20420;-73
2023/04/05 03:52:02;;;;;;;20.85;15.02;;;1.00;99.90;;;-0.39;100.00;97734.41;5011812;28;20416;-73
2023/04/05 03:54:28;;;;;;;20.92;14.43;;;1.00;99.90;;;-0.36;100.00;97730.63;5011730;28;20413;-73
2023/04/05 03:56:54;;;;;;;18.08;13.55;;;1.10;99.90;;;-0.43;100.00;97731.31;5012975;28;20439;-73
2023/04/05 03:59:20;;;;;;;19.35;14.10;;;1.00;99.90;;;-0.43;100.00;97725.31;5011452;28;20412;-73
2023/04/05 04:01:47;;;;;;;21.63;15.10;;;1.00;99.90;;;-0.43;100.00;97730.50;5012645;28;20909;-73
2023/04/05 04:04:13;;;;;;;21.48;13.68;;;1.00;99.90;;;-0.37;100.00;97724.63;5012982;28;20405;-73
2023/04/05 04:06:39;;;;;;;18.63;12.87;;;1.00;99.90;;;-0.52;100.00;97726.34;5012689;28;20778;-73
2023/04/05 04:09:05;;;;;;;18.25;13.10;;;1.00;99.90;;;-0.61;100.00;97725.63;5011359;28;20420;-73
2023/04/05 04:11:31;;;;;;;17.73;12.70;;;0.90;99.90;;;-0.65;100.00;97732.13;5034848;28;20431;-73
2023/04/05 04:13:57;;;;;;;16.85;12.82;;;0.80;99.90;;;-0.67;100.00;97728.88;5048382;28;20919;-73
2023/04/05 04:16:23;;;;;;;19.52;14.07;;;0.80;99.90;;;-0.72;100.00;97726.00;5033812;28;20490;-73
2023/04/05 04:18:53;;;;;;;23.50;15.77;;;0.70;99.90;;;-0.74;100.00;97722.75;5052199;28;20412;-75
2023/04/05 04:21:20;;;;;;;19.05;14.50;;;0.70;99.90;;;-0.74;100.00;97727.94;5051775;28;20485;-75
2023/04/05 04:23:46;;;;;;;23.23;14.68;;;0.70;99.90;;;-0.70;100.00;97729.25;5051993;28;20398;-75
2023/04/05 04:26:13;;;;;;;21.75;14.45;;;0.80;99.90;;;-0.78;100.00;97731.88;5052010;28;20467;-75
2023/04/05 04:28:42;;;;;;;21.10;13.35;;;0.70;99.90;;;-0.79;100.00;97730.25;5051497;28;20405;-75
2023/04/05 04:31:12;;;;;;;18.38;13.75;;;0.70;99.90;;;-0.77;100.00;97720.50;5051601;28;20433;-75
2023/04/05 04:33:39;;;;;;;20.50;14.48;;;0.70;99.90;;;-0.82;100.00;97726.19;5050018;28;20956;-75
2023/04/05 04:36:13;;;;;;;19.15;14.05;;;0.60;99.90;;;-0.89;100.00;97724.44;5032091;28;20443;-75
2023/04/05 04:38:45;;;;;;;20.02;14.57;;;0.60;99.90;;;-0.90;100.00;97723.66;5031831;28;20418;-75
2023/04/05 04:41:13;;;;;;;24.23;16.55;;;0.60;99.90;;;-0.86;100.00;97724.13;5031587;28;20399;-75
2023/04/05 04:43:43;;;;;;;20.42;14.57;;;0.60;99.90;;;-0.90;100.00;97728.84;5032147;28;20399;-75
2023/04/05 04:46:13;;;;;;;19.15;13.75;;;0.60;99.90;;;-0.91;100.00;97723.84;5031951;28;20403;-75
2023/04/05 04:48:41;;;;;;;20.00;14.70;;;0.60;99.90;;;-0.93;100.00;97724.00;5031701;28;20407;-75
2023/04/05 04:51:08;;;;;;;18.98;13.60;;;0.60;99.90;;;-0.95;100.00;97723.34;5031416;28;20399;-75
2023/04/05 04:53:34;;;;;;;19.30;14.05;;;0.50;99.90;;;-0.94;100.00;97730.19;5031606;28;20948;-75
2023/04/05 04:56:00;;;;;;;18.33;13.75;;;0.50;99.90;;;-1.00;100.00;97733.47;5031683;28;20403;-75
2023/04/05 04:58:26;;;;;;;21.48;15.07;;;0.50;99.90;;;-0.94;100.00;97737.97;5030352;28;20505;-75
2023/04/05 05:00:52;;;;;;;19.33;13.00;;;0.40;99.90;;;-1.03;100.00;97740.75;5031366;28;20751;-75
2023/04/05 05:03:18;;;;;;;22.88;15.68;;;0.40;99.90;;;-1.01;100.00;97738.81;5031334;28;20482;-75
2023/04/05 05:05:45;;;;;;;22.45;15.60;;;0.40;99.90;;;-1.06;100.00;97741.94;5031324;28;20407;-75
2023/04/05 05:08:13;;;;;;;21.33;14.50;;;0.40;99.90;;;-1.02;100.00;97740.59;5031348;28;20836;-75
2023/04/05 05:10:39;;;;;;;22.75;15.20;;;0.40;99.90;;;-1.05;100.00;97742.75;5031173;28;20881;-75
2023/04/05 05:13:05;;;;;;;20.25;14.48;;;0.40;99.90;;;-1.01;100.00;97752.63;5031396;28;20800;-75
2023/04/05 05:15:31;;;;;;;18.95;14.07;;;0.40;99.90;;;-1.11;100.00;97748.59;5031060;28;20422;-75
2023/04/05 05:17:57;;;;;;;24.42;15.77;;;0.40;99.90;;;-1.12;100.00;97746.97;5031226;28;20498;-75
2023/04/05 05:20:24;;;;;;;20.08;13.73;;;0.40;99.90;;;-1.09;100.00;97759.63;5030931;28;20407;-75
2023/04/05 05:22:51;;;;;;;23.27;16.08;;;0.40;99.90;;;-1.01;100.00;97752.63;5030985;28;20764;-75
2023/04/05 05:25:19;;;;;;;22.67;14.90;;;0.40;99.90;;;-1.00;100.00;97749.03;5031041;28;20473;-75
2023/04/05 05:27:48;;;;;;;24.45;16.60;;;0.40;99.90;;;-0.98;100.00;97748.88;5030865;28;20484;-75
2023/04/05 05:30:14;;;;;;;23.50;17.35;;;0.40;99.90;;;-0.94;100.00;97743.16;5030942;28;20398;-75
2023/04/05 05:32:40;;;;;;;22.38;15.88;;;0.50;99.90;;;-0.92;100.00;97740.41;5030972;28;20859;-75
2023/04/05 05:35:07;;;;;;;21.75;15.02;;;0.50;99.90;;;-0.94;100.00;97740.56;5021898;28;20416;-75
2023/04/05 05:37:34;;;;;;;21.55;14.70;;;0.50;99.90;;;-0.92;100.00;97741.22;5016397;28;20401;-75
2023/04/05 05:40:00;;;;;;;21.63;15.35;;;0.60;99.90;;;-0.83;100.00;97740.16;5010060;28;20412;-74
2023/04/05 05:42:27;;;;;;;21.27;14.98;;;0.60;99.90;;;-0.80;100.00;97739.84;5011074;28;20440;-74
2023/04/05 05:44:53;;;;;;;21.27;14.95;;;0.60;99.90;;;-0.83;100.00;97731.59;5011227;28;20479;-74
2023/04/05 05:47:19;;;;;;;21.63;15.15;;;0.60;99.90;;;-0.78;100.00;97729.28;5011163;28;20759;-74
2023/04/05 05:49:46;;;;;;;22.00;15.98;;;0.60;99.90;;;-0.81;100.00;97733.03;5010937;28;20407;-74
2023/04/05 05:52:12;;;;;;;26.55;15.88;;;0.60;99.90;;;-0.75;100.00;97739.31;5011365;28;20762;-74
2023/04/05 05:54:38;;;;;;;18.88;15.27;;;0.60;99.90;;;-0.74;100.00;97742.72;5011000;28;20417;-75
2023/04/05 05:57:04;;;;;;;22.35;15.65;;;0.70;99.90;;;-0.68;100.00;97745.47;5010978;28;20436;-74
2023/04/05 05:59:31;;;;;;;22.95;15.82;;;0.70;99.90;;;-0.58;100.00;97734.84;5012213;28;20488;-74
2023/04/05 06:01:57;;;;;;;24.92;16.85;;;0.80;99.90;;;-0.51;100.00;97733.97;5030645;28;20406;-74
2023/04/05 06:04:23;;;;;;;19.50;15.47;;;0.90;99.90;;;-0.44;100.00;97749.69;5030714;28;20399;-74
2023/04/05 06:06:49;;;;;;;20.92;15.93;;;0.90;99.90;;;-0.38;100.00;97741.22;5030598;28;20485;-74
2023/04/05 06:09:15;;;;;;;21.20;16.03;;;1.00;99.90;;;-0.31;100.00;97746.53;5030331;28;20438;-74
2023/04/05 06:11:41;;;;;;;22.92;16.92;;;1.00;99.90;;;-0.23;100.00;97742.09;5012859;28;20414;-74
2023/04/05 06:14:07;;;;;;;21.92;16.38;;;1.10;99.90;;;-0.11;100.00;97745.09;5030387;28;20912;-74
2023/04/05 06:16:35;;;;;;;22.38;17.40;;;1.20;99.90;;;-0.01;100.00;97745.66;5030653;28;20399;-74
2023/04/05 06:19:01;;;;;;;24.60;17.47;;;1.30;99.90;;;0.08;100.00;97749.78;5030501;28;20403;-74
2023/04/05 06:21:27;;;;;;;20.98;16.42;;;1.40;99.90;;;0.18;100.00;97750.38;5030358;28;20403;-77
2023/04/05 06:23:53;;;;;;;22.13;17.10;;;1.50;99.90;;;0.25;100.00;97746.06;5012922;28;20422;-76
2023/04/05 06:26:25;;;;;;;23.95;16.85;;;1.60;99.90;;;0.37;100.00;97751.66;5030623;28;20399;-77
2023/04/05 06:28:53;;;;;;;21.10;16.73;;;1.60;99.90;;;0.46;100.00;97745.38;5031532;28;20434;-80
2023/04/05 06:31:20;;;;;;;23.08;16.40;;;1.70;99.90;;;0.54;100.00;97755.72;5032995;28;20403;-78
2023/04/05 06:33:47;;;;;;;20.38;16.55;;;1.80;99.90;;;0.63;100.00;97751.22;5032791;28;20415;-78
2023/04/05 06:36:13;;;;;;;21.17;16.77;;;1.90;99.90;;;0.68;100.00;97746.28;5015179;28;20414;-79
2023/04/05 06:38:39;;;;;;;25.88;18.38;;;2.00;99.90;;;0.74;100.00;97748.19;5011248;28;20409;-78
2023/04/05 06:41:05;;;;;;;24.98;18.42;;;2.00;99.90;;;0.79;100.00;97756.25;5022005;28;21595;-77
2023/04/05 06:43:31;;;;;;;26.40;18.85;;;2.10;99.90;;;0.83;100.00;97751.53;5031300;28;20455;-76
2023/04/05 06:45:57;;;;;;;26.90;19.58;;;2.10;99.90;;;0.88;100.00;97751.78;5041156;28;20393;-77
2023/04/05 06:48:23;;;;;;;24.60;18.53;;;2.10;99.90;;;0.93;100.00;97759.84;5033617;28;20480;-74
2023/04/05 06:50:58;;;;;;;25.33;18.27;;;2.20;99.90;;;1.00;100.00;97755.53;5039006;28;20409;-77
2023/04/05 06:53:26;;;;;;;25.67;18.58;;;2.30;99.90;;;1.06;100.00;97757.41;5033424;28;20434;-75
2023/04/05 06:55:52;;;;;;;23.67;18.30;;;2.30;99.90;;;1.11;100.00;97750.69;5034580;28;20908;-75
2023/04/05 06:58:18;;;;;;;26.52;18.30;;;2.30;99.90;;;1.17;100.00;97760.38;5034576;28;20403;-75
2023/04/05 07:00:45;;;;;;;28.00;20.13;;;2.40;99.90;;;1.22;100.00;97757.19;5032258;28;20984;-75
2023/04/05 07:03:11;;;;;;;26.67;18.42;;;2.50;99.90;;;1.28;100.00;97766.91;5034087;28;20410;-75
2023/04/05 07:05:36;;;;;;;29.73;19.67;;;2.50;99.90;;;1.35;100.00;97761.78;5033861;28;20407;-76
2023/04/05 07:08:04;;;;;;;25.50;18.30;;;2.60;99.90;;;1.41;100.00;97761.03;5033108;28;20402;-76
2023/04/05 07:10:30;;;;;;;25.65;19.17;;;2.60;99.90;;;1.50;100.00;97759.94;5032109;28;20403;-76
2023/04/05 07:12:56;;;;;;;25.03;19.10;;;2.70;99.90;;;1.59;100.00;97771.06;5034600;28;21052;-76
2023/04/05 07:15:22;;;;;;;26.67;18.88;;;2.80;99.90;;;1.64;100.00;97772.13;5050962;28;20421;-76
2023/04/05 07:17:48;;;;;;;26.63;18.20;;;2.80;99.90;;;1.69;100.00;97759.34;5039181;28;20537;-76
2023/04/05 07:20:15;;;;;;;25.45;18.30;;;2.90;99.90;;;1.81;100.00;97767.47;5045515;28;20758;-76
2023/04/05 07:22:41;;;;;;;26.27;18.77;;;3.00;99.90;;;1.89;100.00;97762.94;5036653;28;20880;-76
2023/04/05 07:25:09;;;;;;;26.77;19.57;;;3.10;99.90;;;1.99;100.00;97765.25;5051039;28;20461;-80
2023/04/05 07:27:35;;;;;;;24.52;17.23;;;3.20;99.90;;;2.07;100.00;97765.13;5020365;28;20410;-78
2023/04/05 07:30:01;;;;;;;25.98;17.95;;;3.30;99.90;;;2.15;100.00;97759.75;5070316;28;20475;-76
2023/04/05 07:32:27;;;;;;;24.75;17.75;;;3.30;99.90;;;2.27;100.00;97757.44;5057602;28;20429;-75
2023/04/05 07:34:53;;;;;;;25.77;17.90;;;3.50;99.90;;;2.31;100.00;97763.91;5025263;28;20456;-76
2023/04/05 07:37:19;;;;;;;24.83;17.02;;;3.50;99.90;;;2.39;100.00;97757.75;5047278;28;20964;-76
2023/04/05 07:39:45;;;;;;;21.65;17.08;;;3.60;99.90;;;2.48;100.00;97756.59;5030783;28;20488;-76
2023/04/05 07:42:12;;;;;;;24.08;16.20;;;3.60;99.90;;;2.55;100.00;97754.84;5031659;28;20462;-76
2023/04/05 07:44:38;;;;;;;20.20;15.93;;;3.70;99.90;;;2.61;100.00;97754.88;5024244;28;20416;-76
2023/04/05 07:47:04;;;;;;;25.48;17.63;;;3.80;99.90;;;2.70;100.00;97760.78;5032571;28;20417;-75
2023/04/05 07:49:30;;;;;;;21.73;17.27;;;3.80;99.90;;;2.77;100.00;97768.66;5039549;28;20414;-75
2023/04/05 07:51:56;;;;;;;22.98;17.45;;;3.90;99.90;;;2.82;100.00;97767.06;5036116;28;20407;-75
2023/04/05 07:54:22;;;;;;;20.83;15.35;;;4.00;99.90;;;2.89;100.00;97767.09;5040242;28;20415;-76
2023/04/05 07:56:49;;;;;;;19.93;14.70;;;4.00;99.90;;;2.96;100.00;97771.38;5040466;28;20546;-76
2023/04/05 07:59:16;;;;;;;24.10;17.40;;;4.10;99.90;;;3.05;100.00;97764.97;5040522;28;20410;-76
2023/04/05 08:01:42;;;;;;;19.73;15.13;;;4.20;99.90;;;3.08;100.00;97771.66;5038236;28;20453;-76
2023/04/05 08:04:08;;;;;;;25.23;16.80;;;4.20;99.90;;;3.12;100.00;97767.63;5015751;28;20399;-76
2023/04/05 08:06:34;;;;;;;21.65;15.68;;;4.20;99.90;;;3.16;100.00;97771.44;5015593;28;20454;-76
2023/04/05 08:09:02;;;;;;;20.83;15.57;;;4.30;99.90;;;3.20;100.00;97770.06;5043202;28;20412;-77
2023/04/05 08:11:28;;;;;;;19.95;15.20;;;4.30;99.90;;;3.29;100.00;97768.09;5043854;28;20783;-77
2023/04/05 08:13:54;;;;;;;20.10;15.33;;;4.40;99.90;;;3.29;100.00;97763.69;5053315;28;20417;-77
2023/04/05 08:16:21;;;;;;;20.40;14.98;;;4.40;99.90;;;3.39;100.00;97768.53;5039970;28;20415;-76
2023/04/05 08:18:47;;;;;;;16.63;12.13;;;4.50;99.90;;;3.24;100.00;97773.91;5034277;28;20418;-77
2023/04/05 08:21:13;;;;;;;20.58;13.82;;;4.40;99.90;;;3.37;100.00;97768.75;5034005;28;20458;-76
2023/04/05 08:23:39;;;;;;;21.97;16.13;;;4.40;99.90;;;3.56;100.00;97761.13;5047292;28;20407;-77
2023/04/05 08:26:06;;;;;;;25.00;15.63;;;4.60;99.90;;;3.61;100.00;97766.63;5051651;28;20408;-77
2023/04/05 08:28:32;;;;;;;20.60;14.13;;;4.70;99.90;;;3.61;100.00;97756.91;5049779;28;20539;-77
2023/04/05 08:30:59;;;;;;;19.33;13.90;;;4.70;99.90;;;3.69;100.00;97761.97;5039673;28;20919;-77
2023/04/05 08:33:29;;;;;;;20.73;13.32;;;4.80;99.90;;;3.76;100.00;97765.41;5048823;28;20405;-77
2023/04/05 08:35:55;;;;;;;20.02;14.23;;;4.80;99.90;;;3.85;100.00;97763.41;5041487;28;20810;-77
2023/04/05 08:38:22;;;;;;;18.00;12.63;;;4.90;99.90;;;4.00;100.00;97768.47;5040888;28;20929;-77
2023/04/05 08:40:48;;;;;;;23.42;15.05;;;5.00;99.90;;;4.01;100.00;97762.25;5039232;28;20405;-77
2023/04/05 08:43:22;;;;;;;18.38;12.77;;;5.10;99.90;;;4.09;100.00;97768.09;5020784;28;20438;-77
2023/04/05 08:45:50;;;;;;;19.73;13.82;;;5.10;99.90;;;4.05;100.00;97766.91;5030518;28;20439;-76
2023/04/05 08:48:17;;;;;;;19.10;13.68;;;5.10;99.90;;;4.14;100.00;97770.91;5012804;28;20453;-76
2023/04/05 08:50:51;;;;;;;17.30;12.98;;;5.20;99.90;;;4.21;100.00;97769.09;5028751;28;20417;-76
2023/04/05 08:53:17;;;;;;;18.33;12.57;;;5.30;99.90;;;4.29;100.00;97771.53;5039331;28;20402;-76
2023/04/05 08:55:44;;;;;;;19.38;14.23;;;5.30;99.90;;;4.39;100.00;97772.94;5050201;28;20474;-76
2023/04/05 08:58:13;;;;;;;19.83;13.70;;;5.40;99.90;;;4.45;100.00;97772.13;5051449;28;20412;-76
2023/04/05 09:00:40;;;;;;;20.08;11.13;;;5.50;99.90;;;4.35;100.00;97775.19;5050306;28;20438;-76
2023/04/05 09:03:11;;;;;;;15.93;10.90;;;5.40;99.90;;;4.25;100.00;97767.69;5050511;28;20460;-76
2023/04/05 09:05:40;;;;;;;14.43;10.77;;;5.40;99.90;;;4.28;100.00;97758.66;5051534;28;20814;-76
2023/04/05 09:08:08;;;;;;;20.52;14.05;;;5.30;99.90;;;4.57;100.00;97757.41;5051713;28;20497;-76
2023/04/05 09:10:34;;;;;;;16.23;11.47;;;5.60;99.90;;;4.55;100.00;97762.03;5051674;28;20488;-77
2023/04/05 09:13:02;;;;;;;14.80;9.57;;;5.60;99.90;;;4.61;100.00;97756.78;5035661;28;20448;-77
2023/04/05 09:15:29;;;;;;;13.23;9.40;;;5.60;99.90;;;4.68;100.00;97762.03;5038040;22;20427;-77
2023/04/05 09:17:56;;;;;;;12.98;8.40;;;5.70;99.90;;;4.79;100.00;97758.78;5031331;28;20480;-77
2023/04/05 09:20:22;;;;;;;13.68;8.20;;;5.80;99.90;;;4.90;100.00;97763.38;5031146;28;20497;-77
2023/04/05 09:22:48;;;;;;;12.43;8.10;;;5.90;99.90;;;5.02;100.00;97763.59;5031153;28;20479;-77
2023/04/05 09:25:35;;;;;;;10.63;7.57;;;6.00;99.90;;;5.13;100.00;97760.31;5031414;28;20830;-77
2023/04/05 09:28:04;;;;;;;9.90;7.15;;;6.10;99.90;;;5.31;100.00;97770.13;5031090;28;20395;-77
2023/04/05 09:30:31;;;;;;;12.48;8.65;;;6.20;99.90;;;5.35;100.00;97766.06;5013177;28;20411;-77
2023/04/05 09:32:57;;;;;;;12.00;8.30;;;6.30;99.90;;;5.39;100.00;97769.91;5030867;28;20738;-77
2023/04/05 09:35:27;;;;;;;15.02;9.68;;;6.40;99.90;;;5.42;100.00;97770.28;5030988;28;20426;-77
2023/04/05 09:37:55;;;;;;;14.43;9.40;;;6.40;99.90;;;5.39;100.00;97772.53;5031015;28;20427;-77
2023/04/05 09:40:23;;;;;;;12.20;8.95;;;6.40;99.90;;;5.59;100.00;97764.56;5013104;28;20414;-77
2023/04/05 09:42:51;;;;;;;12.88;9.75;;;6.50;99.90;;;5.62;100.00;97761.53;5030589;28;20403;-77
2023/04/05 09:45:17;;;;;;;13.05;9.70;;;6.60;99.90;;;5.66;100.00;97760.06;5030898;28;20478;-76
2023/04/05 09:47:54;;;;;;;14.25;8.52;;;6.60;99.90;;;5.74;100.00;97765.88;5030736;28;20939;-76
2023/04/05 09:50:20;;;;;;;13.48;7.63;;;6.70;99.90;;;5.76;100.00;97766.50;5030913;28;20904;-76
2023/04/05 09:52:47;;;;;;;8.77;6.82;;;6.70;99.90;;;5.50;100.00;97758.72;5030795;28;20892;-76
2023/04/05 09:55:13;;;;;;;13.55;8.65;;;6.50;99.90;;;5.59;100.00;97756.69;5030899;28;20419;-77
2023/04/05 09:57:42;;;;;;;10.95;8.90;;;6.60;99.90;;;5.70;100.00;97759.47;5031002;28;20494;-77
2023/04/05 10:00:18;;;;;;;14.02;10.20;;;6.70;99.90;;;5.91;100.00;97763.59;5030663;28;20418;-77
2023/04/05 10:02:46;;;;;;;15.07;11.05;;;6.80;99.90;;;6.18;100.00;97754.50;5031344;28;20407;-77
2023/04/05 10:05:12;;;;;;;12.27;9.65;;;7.20;99.90;;;6.30;100.00;97753.84;5030725;28;20760;-76
2023/04/05 10:07:39;;;;;;;12.35;8.27;;;7.20;99.90;;;6.48;100.00;97754.66;5030624;28;20408;-76
2023/04/05 10:10:06;;;;;;;13.83;10.37;;;7.40;99.90;;;6.72;100.00;97745.16;5030692;28;20488;-76
2023/04/05 10:12:34;;;;;;;12.88;8.80;;;7.60;99.90;;;7.16;100.00;97746.69;5030148;28;20395;-76
2023/04/05 10:15:01;;;;;;;17.02;9.85;;;8.00;99.90;;;7.92;100.00;97742.69;5012621;28;20413;-76